createdAt,value
2018-04-13T00:01:31.640Z,4.60
2018-04-13T00:03:59.064Z,5.37
2018-04-13T00:06:26.471Z,4.20
2018-04-13T00:08:53.888Z,5.43
2018-04-13T00:11:21.298Z,6.80
2018-04-13T00:13:48.852Z,6.07
2018-04-13T00:16:16.256Z,7.53
2018-04-13T00:18:43.664Z,7.77
2018-04-13T00:21:11.075Z,8.90
2018-04-13T00:23:38.480Z,8.97
2018-04-13T00:26:05.901Z,12.10
2018-04-13T00:28:33.329Z,10.70
2018-04-13T00:31:00.852Z,8.37
2018-04-13T00:33:28.252Z,7.53
2018-04-13T00:35:55.660Z,6.60
2018-04-13T00:38:23.084Z,5.93
2018-04-13T00:40:50.501Z,6.40
2018-04-13T00:43:17.941Z,8.77
2018-04-13T00:45:45.328Z,9.23
2018-04-13T00:48:12.737Z,6.87
2018-04-13T00:50:40.164Z,7.90
2018-04-13T00:53:19.317Z,6.67
2018-04-13T00:55:46.869Z,5.27
2018-04-13T00:58:14.276Z,5.47
2018-04-13T01:00:41.676Z,6.63
2018-04-13T01:03:09.079Z,3.97
2018-04-13T01:05:36.475Z,4.03
2018-04-13T01:08:03.884Z,5.67
2018-04-13T01:10:31.280Z,4.93
2018-04-13T01:12:58.694Z,5.87
2018-04-13T01:15:26.088Z,5.63
2018-04-13T01:17:53.500Z,5.20
2018-04-13T01:20:20.911Z,3.90
2018-04-13T01:22:48.305Z,3.27
2018-04-13T01:25:15.712Z,3.67
2018-04-13T01:27:43.136Z,3.10
2018-04-13T01:30:10.696Z,2.90
2018-04-13T01:32:38.098Z,2.50
2018-04-13T01:35:05.494Z,2.13
2018-04-13T01:37:32.912Z,2.40
2018-04-13T01:40:00.319Z,2.30
2018-04-13T01:42:27.724Z,3.10
2018-04-13T01:44:55.136Z,2.83
2018-04-13T01:47:22.563Z,2.60
2018-04-13T01:49:49.980Z,3.03
2018-04-13T01:52:17.386Z,3.37
2018-04-13T01:54:44.800Z,3.63
2018-04-13T01:57:12.213Z,3.83
2018-04-13T01:59:39.620Z,3.40
2018-04-13T02:02:07.023Z,3.10
2018-04-13T02:04:34.416Z,3.10
2018-04-13T02:07:01.821Z,3.47
2018-04-13T02:09:29.240Z,3.90
2018-04-13T02:11:56.647Z,4.13
2018-04-13T02:14:24.064Z,4.23
2018-04-13T02:16:51.486Z,3.80
2018-04-13T02:19:18.903Z,3.53
2018-04-13T02:21:46.322Z,3.57
2018-04-13T02:24:13.731Z,3.83
2018-04-13T02:26:41.139Z,3.93
2018-04-13T02:29:08.535Z,4.20
2018-04-13T02:31:35.952Z,4.40
2018-04-13T02:34:03.364Z,2.80
2018-04-13T02:36:30.772Z,3.93
2018-04-13T02:38:58.163Z,3.50
2018-04-13T02:41:25.573Z,3.90
2018-04-13T02:43:52.971Z,3.53
2018-04-13T02:46:20.387Z,3.63
2018-04-13T02:48:47.876Z,4.43
2018-04-13T02:51:15.274Z,3.50
2018-04-13T02:53:42.684Z,3.90
2018-04-13T02:56:10.085Z,3.60
2018-04-13T02:58:37.528Z,3.77
2018-04-13T03:01:04.935Z,4.00
2018-04-13T03:03:32.327Z,4.23
2018-04-13T03:05:59.758Z,4.50
2018-04-13T03:08:27.144Z,4.13
2018-04-13T03:10:54.564Z,3.70
2018-04-13T03:13:21.959Z,3.53
2018-04-13T03:15:49.377Z,3.60
2018-04-13T03:18:16.772Z,3.60
2018-04-13T03:20:44.192Z,3.73
2018-04-13T03:23:11.589Z,3.63
2018-04-13T03:25:38.990Z,3.30
2018-04-13T03:28:06.388Z,3.97
2018-04-13T03:30:33.820Z,3.63
2018-04-13T03:33:01.216Z,3.87
2018-04-13T03:35:28.632Z,3.97
2018-04-13T03:37:56.063Z,3.50
2018-04-13T03:40:23.476Z,4.13
2018-04-13T03:42:50.904Z,3.80
2018-04-13T03:45:18.303Z,3.73
2018-04-13T03:47:45.709Z,5.90
2018-04-13T03:50:13.136Z,3.53
2018-04-13T03:52:40.539Z,3.70
2018-04-13T03:55:07.960Z,3.10
2018-04-13T03:57:35.363Z,3.07
2018-04-13T04:00:02.945Z,3.50
2018-04-13T04:02:35.223Z,3.27
2018-04-13T04:05:02.632Z,3.60
2018-04-13T04:07:30.044Z,4.00
2018-04-13T04:09:57.448Z,4.03
2018-04-13T04:12:24.848Z,4.00
2018-04-13T04:14:52.260Z,5.27
2018-04-13T04:17:19.648Z,5.07
2018-04-13T04:19:59.795Z,4.60
2018-04-13T04:22:38.837Z,4.70
2018-04-13T04:25:17.976Z,4.07
2018-04-13T04:27:45.390Z,4.70
2018-04-13T04:30:12.798Z,5.37
2018-04-13T04:32:40.217Z,5.00
2018-04-13T04:35:07.624Z,4.63
2018-04-13T04:37:35.031Z,5.80
2018-04-13T04:40:02.442Z,4.60
2018-04-13T04:42:29.867Z,4.37
2018-04-13T04:44:57.252Z,4.50
2018-04-13T04:47:25.014Z,4.70
2018-04-13T04:49:52.419Z,4.90
2018-04-13T04:52:19.824Z,5.10
2018-04-13T04:54:47.252Z,5.30
2018-04-13T04:57:14.646Z,5.17
2018-04-13T04:59:42.086Z,6.10
2018-04-13T05:02:09.452Z,5.07
2018-04-13T05:04:36.859Z,5.60
2018-04-13T05:07:04.258Z,5.30
2018-04-13T05:09:31.664Z,5.70
2018-04-13T05:11:59.063Z,5.90
2018-04-13T05:14:26.476Z,5.40
2018-04-13T05:16:53.869Z,5.90
2018-04-13T05:19:21.284Z,5.60
2018-04-13T05:21:48.671Z,5.87
2018-04-13T05:24:16.084Z,5.30
2018-04-13T05:26:43.492Z,5.67
2018-04-13T05:29:10.974Z,7.30
2018-04-13T05:31:38.352Z,7.60
2018-04-13T05:34:05.795Z,7.63
2018-04-13T05:36:33.192Z,7.00
2018-04-13T05:39:00.608Z,11.17
2018-04-13T05:41:28.011Z,13.57
2018-04-13T05:43:55.432Z,14.73
2018-04-13T05:46:22.847Z,12.30
2018-04-13T05:48:50.269Z,12.13
2018-04-13T05:51:17.681Z,13.63
2018-04-13T05:53:45.100Z,10.80
2018-04-13T05:56:12.499Z,12.57
2018-04-13T05:58:39.921Z,13.63
2018-04-13T06:01:07.336Z,13.43
2018-04-13T06:03:34.768Z,11.77
2018-04-13T06:06:02.204Z,11.70
2018-04-13T06:08:29.606Z,13.20
2018-04-13T06:10:57.011Z,11.27
2018-04-13T06:13:24.451Z,10.70
2018-04-13T06:15:51.855Z,9.97
2018-04-13T06:18:19.280Z,9.43
2018-04-13T06:20:46.692Z,10.20
2018-04-13T06:23:14.104Z,11.13
2018-04-13T06:25:41.533Z,12.47
2018-04-13T06:28:08.960Z,15.73
2018-04-13T06:30:36.364Z,16.80
2018-04-13T06:33:03.789Z,17.73
2018-04-13T06:35:31.202Z,13.43
2018-04-13T06:37:58.620Z,14.33
2018-04-13T06:40:26.028Z,14.23
2018-04-13T06:42:53.448Z,12.33
2018-04-13T06:45:20.880Z,10.33
2018-04-13T06:47:48.285Z,10.53
2018-04-13T06:50:15.708Z,9.43
2018-04-13T06:52:43.123Z,8.97
2018-04-13T06:55:10.577Z,8.87
2018-04-13T06:57:37.980Z,9.80
2018-04-13T07:00:05.424Z,11.23
2018-04-13T07:02:32.849Z,12.00
2018-04-13T07:05:00.252Z,11.23
2018-04-13T07:07:27.699Z,11.77
2018-04-13T07:09:55.108Z,12.80
2018-04-13T07:12:22.516Z,13.10
2018-04-13T07:14:49.937Z,12.83
2018-04-13T07:17:17.362Z,15.83
2018-04-13T07:19:44.778Z,16.07
2018-04-13T07:22:12.213Z,20.37
2018-04-13T07:24:39.621Z,20.10
2018-04-13T07:27:07.045Z,21.73
2018-04-13T07:29:34.454Z,29.83
2018-04-13T07:32:01.892Z,28.70
2018-04-13T07:34:29.318Z,34.53
2018-04-13T07:36:57.024Z,35.40
2018-04-13T07:39:24.528Z,36.93
2018-04-13T07:41:51.918Z,37.87
2018-04-13T07:44:19.331Z,35.67
2018-04-13T07:46:46.747Z,36.23
2018-04-13T07:49:14.184Z,33.73
2018-04-13T07:51:41.606Z,33.30
2018-04-13T07:54:09.032Z,36.43
2018-04-13T07:56:36.455Z,33.70
2018-04-13T07:59:03.889Z,35.23
2018-04-13T08:01:31.301Z,37.00
2018-04-13T08:03:58.733Z,35.40
2018-04-13T08:06:26.160Z,38.23
2018-04-13T08:08:53.579Z,38.30
2018-04-13T08:11:20.998Z,37.60
2018-04-13T08:13:48.632Z,41.17
2018-04-13T08:16:16.039Z,41.00
2018-04-13T08:18:43.460Z,43.40
2018-04-13T08:21:10.871Z,44.50
2018-04-13T08:23:38.300Z,37.97
2018-04-13T08:26:05.736Z,38.47
2018-04-13T08:28:33.154Z,39.67
2018-04-13T08:31:00.565Z,44.90
2018-04-13T08:33:28.011Z,45.37
2018-04-13T08:35:55.413Z,48.50
2018-04-13T08:38:22.846Z,43.63
2018-04-13T08:40:50.528Z,50.70
2018-04-13T08:43:17.986Z,48.70
2018-04-13T08:45:45.432Z,45.37
2018-04-13T08:48:12.796Z,45.73
2018-04-13T08:50:40.234Z,47.73
2018-04-13T08:53:07.644Z,47.30
2018-04-13T08:55:35.076Z,52.47
2018-04-13T08:58:02.521Z,53.97
2018-04-13T09:00:29.935Z,57.43
2018-04-13T09:02:57.356Z,53.73
2018-04-13T09:05:24.768Z,56.93
2018-04-13T09:07:52.228Z,59.80
2018-04-13T09:10:19.652Z,62.70
2018-04-13T09:12:47.089Z,61.40
2018-04-13T09:15:14.497Z,59.63
2018-04-13T09:17:41.917Z,64.67
2018-04-13T09:20:09.337Z,63.20
2018-04-13T09:22:36.747Z,64.57
2018-04-13T09:25:04.152Z,66.57
2018-04-13T09:27:31.875Z,64.00
2018-04-13T09:29:59.280Z,66.80
2018-04-13T09:32:26.694Z,65.03
2018-04-13T09:34:54.118Z,64.43
2018-04-13T09:37:21.540Z,68.07
2018-04-13T09:39:48.945Z,64.30
2018-04-13T09:42:16.363Z,62.10
2018-04-13T09:44:43.774Z,66.67
2018-04-13T09:47:11.187Z,67.37
2018-04-13T09:49:38.598Z,69.53
2018-04-13T09:52:06.010Z,67.57
2018-04-13T09:54:33.431Z,66.13
2018-04-13T09:57:00.848Z,70.07
2018-04-13T09:59:28.955Z,68.93
2018-04-13T10:01:56.369Z,66.17
2018-04-13T10:04:23.796Z,69.27
2018-04-13T10:06:51.265Z,70.30
2018-04-13T10:09:18.697Z,70.93
2018-04-13T10:11:46.137Z,73.57
2018-04-13T10:14:13.560Z,70.80
2018-04-13T10:16:40.977Z,68.07
2018-04-13T10:19:08.398Z,68.70
2018-04-13T10:21:35.819Z,67.43
2018-04-13T10:24:03.291Z,70.27
2018-04-13T10:26:30.719Z,67.90
2018-04-13T10:28:58.168Z,70.87
2018-04-13T10:31:25.596Z,72.40
2018-04-13T10:33:53.052Z,73.47
2018-04-13T10:36:20.503Z,72.73
2018-04-13T10:38:47.934Z,76.20
2018-04-13T10:41:15.343Z,77.80
2018-04-13T10:43:42.803Z,69.50
2018-04-13T10:46:10.232Z,73.87
2018-04-13T10:48:37.669Z,69.10
2018-04-13T10:51:05.098Z,69.00
2018-04-13T10:53:32.528Z,72.53
2018-04-13T10:56:01.401Z,70.33
2018-04-13T10:58:28.851Z,67.20
2018-04-13T11:00:56.282Z,72.70
2018-04-13T11:03:23.724Z,65.13
2018-04-13T11:05:51.143Z,68.53
2018-04-13T11:08:18.557Z,62.47
2018-04-13T11:10:45.983Z,63.40
2018-04-13T11:13:13.387Z,64.20
2018-04-13T11:15:40.840Z,63.40
2018-04-13T11:18:08.249Z,62.03
2018-04-13T11:20:35.663Z,63.53
2018-04-13T11:23:03.072Z,67.50
2018-04-13T11:25:30.532Z,67.10
2018-04-13T11:27:57.941Z,58.40
2018-04-13T11:30:25.360Z,61.30
2018-04-13T11:32:52.770Z,60.17
2018-04-13T11:35:20.197Z,67.73
2018-04-13T11:37:47.599Z,66.53
2018-04-13T11:40:15.057Z,64.73
2018-04-13T11:42:43.381Z,58.70
2018-04-13T11:45:10.857Z,63.93
2018-04-13T11:47:38.261Z,71.23
2018-04-13T11:50:05.691Z,82.37
2018-04-13T11:52:33.104Z,76.57
2018-04-13T11:55:00.511Z,73.53
2018-04-13T11:57:27.927Z,78.17
2018-04-13T11:59:55.357Z,72.80
2018-04-13T12:02:22.759Z,72.37
2018-04-13T12:04:50.207Z,78.60
2018-04-13T12:07:19.880Z,77.87
2018-04-13T12:09:47.293Z,76.37
2018-04-13T12:12:14.715Z,80.10
2018-04-13T12:14:42.149Z,81.77
2018-04-13T12:17:09.565Z,79.87
2018-04-13T12:19:36.990Z,99.00
2018-04-13T12:22:04.404Z,92.80
2018-04-13T12:24:31.828Z,100.40
2018-04-13T12:26:59.255Z,106.20
2018-04-13T12:29:26.700Z,110.23
2018-04-13T12:31:54.115Z,97.83
2018-04-13T12:34:21.581Z,92.23
2018-04-13T12:36:49.056Z,101.37
2018-04-13T12:39:16.483Z,92.40
2018-04-13T12:41:43.912Z,94.37
2018-04-13T12:44:11.376Z,90.67
2018-04-13T12:46:38.793Z,87.53
2018-04-13T12:49:06.209Z,94.63
2018-04-13T12:51:33.623Z,93.20
2018-04-13T12:54:01.137Z,101.10
2018-04-13T12:56:28.556Z,96.93
2018-04-13T12:58:56.013Z,84.90
2018-04-13T13:01:23.448Z,76.57
2018-04-13T13:03:51.308Z,67.67
2018-04-13T13:06:18.727Z,64.20
2018-04-13T13:08:46.154Z,48.10
2018-04-13T13:11:13.606Z,40.93
2018-04-13T13:13:41.012Z,41.43
2018-04-13T13:16:08.433Z,40.90
2018-04-13T13:18:35.906Z,43.97
2018-04-13T13:21:03.332Z,46.40
2018-04-13T13:23:30.743Z,42.60
2018-04-13T13:25:58.195Z,36.93
2018-04-13T13:28:25.614Z,40.60
2018-04-13T13:30:53.040Z,32.53
2018-04-13T13:33:20.459Z,30.73
2018-04-13T13:35:47.881Z,29.50
2018-04-13T13:38:15.293Z,27.03
2018-04-13T13:40:42.739Z,27.90
2018-04-13T13:43:10.155Z,25.87
2018-04-13T13:45:37.571Z,25.57
2018-04-13T13:48:04.988Z,24.97
2018-04-13T13:50:32.685Z,23.57
2018-04-13T13:53:00.095Z,22.30
2018-04-13T13:55:27.500Z,22.27
2018-04-13T13:57:54.919Z,20.57
2018-04-13T14:00:22.351Z,20.57
2018-04-13T14:02:49.755Z,21.20
2018-04-13T14:05:17.180Z,20.43
2018-04-13T14:07:44.579Z,19.70
2018-04-13T14:10:12.016Z,20.23
2018-04-13T14:12:39.431Z,20.73
2018-04-13T14:15:06.851Z,21.20
2018-04-13T14:17:34.283Z,19.80
2018-04-13T14:20:01.752Z,18.27
2018-04-13T14:22:29.185Z,19.37
2018-04-13T14:24:56.612Z,20.57
2018-04-13T14:27:24.021Z,19.47
2018-04-13T14:29:51.471Z,19.07
2018-04-13T14:32:18.880Z,20.87
2018-04-13T14:34:46.317Z,21.70
2018-04-13T14:37:13.723Z,22.23
2018-04-13T14:39:41.153Z,23.03
2018-04-13T14:42:08.563Z,22.50
2018-04-13T14:44:35.995Z,23.60
2018-04-13T14:47:03.399Z,24.53
2018-04-13T14:49:30.823Z,25.20
2018-04-13T14:51:58.252Z,24.63
2018-04-13T14:54:25.670Z,24.13
2018-04-13T14:56:53.132Z,25.60
2018-04-13T14:59:20.580Z,24.00
2018-04-13T15:01:48.014Z,23.87
2018-04-13T15:04:15.419Z,23.73
2018-04-13T15:06:42.844Z,22.17
2018-04-13T15:09:10.259Z,21.13
2018-04-13T15:11:37.681Z,21.93
2018-04-13T15:14:05.091Z,21.70
2018-04-13T15:16:32.516Z,21.30
2018-04-13T15:18:59.938Z,20.83
2018-04-13T15:21:27.373Z,20.97
2018-04-13T15:23:54.830Z,19.77
2018-04-13T15:26:22.235Z,19.57
2018-04-13T15:28:49.660Z,18.40
2018-04-13T15:31:17.076Z,17.13
2018-04-13T15:33:44.509Z,18.67
2018-04-13T15:36:11.927Z,18.93
2018-04-13T15:38:39.343Z,19.93
2018-04-13T15:41:06.759Z,18.93
2018-04-13T15:43:34.180Z,18.03
2018-04-13T15:46:01.593Z,17.27
2018-04-13T15:48:29.008Z,18.43
2018-04-13T15:50:56.469Z,17.47
2018-04-13T15:53:23.904Z,17.23
2018-04-13T15:55:51.315Z,16.93
2018-04-13T15:58:18.740Z,14.63
2018-04-13T16:00:46.140Z,15.50
2018-04-13T16:03:13.560Z,16.43
2018-04-13T16:05:40.988Z,15.13
2018-04-13T16:08:08.421Z,17.03
2018-04-13T16:10:35.819Z,17.53
2018-04-13T16:13:03.421Z,16.53
2018-04-13T16:15:30.845Z,17.20
2018-04-13T16:17:58.248Z,18.10
2018-04-13T16:20:25.683Z,17.33
2018-04-13T16:22:53.104Z,16.97
2018-04-13T16:25:20.540Z,18.23
2018-04-13T16:27:47.951Z,19.30
2018-04-13T16:30:15.396Z,18.80
2018-04-13T16:32:42.826Z,18.17
2018-04-13T16:35:10.260Z,18.90
2018-04-13T16:37:37.680Z,17.77
2018-04-13T16:40:05.119Z,19.07
2018-04-13T16:42:32.536Z,18.63
2018-04-13T16:44:59.960Z,21.20
2018-04-13T16:47:27.391Z,19.93
2018-04-13T16:49:54.836Z,20.70
2018-04-13T16:52:22.265Z,19.80
2018-04-13T16:54:49.691Z,20.90
2018-04-13T16:57:17.116Z,19.80
2018-04-13T16:59:44.540Z,18.47
2018-04-13T17:02:11.952Z,20.67
2018-04-13T17:04:39.384Z,20.30
2018-04-13T17:07:06.833Z,21.20
2018-04-13T17:09:34.279Z,21.93
2018-04-13T17:12:01.689Z,21.77
2018-04-13T17:14:29.116Z,20.90
2018-04-13T17:16:56.552Z,22.70
2018-04-13T17:19:23.975Z,23.03
2018-04-13T17:21:51.396Z,24.50
2018-04-13T17:24:18.855Z,25.90
2018-04-13T17:26:46.316Z,27.43
2018-04-13T17:29:13.735Z,25.87
2018-04-13T17:31:41.159Z,27.87
2018-04-13T17:34:08.573Z,28.87
2018-04-13T17:36:36.000Z,29.70
2018-04-13T17:39:03.408Z,30.03
2018-04-13T17:41:30.835Z,31.50
2018-04-13T17:43:58.244Z,29.77
2018-04-13T17:46:25.681Z,29.70
2018-04-13T17:48:53.106Z,30.23
2018-04-13T17:51:20.513Z,29.47
2018-04-13T17:53:47.930Z,30.40
2018-04-13T17:56:15.348Z,30.70
2018-04-13T17:58:42.775Z,28.37
2018-04-13T18:01:10.200Z,29.97
2018-04-13T18:03:37.644Z,29.03
2018-04-13T18:06:05.076Z,30.77
2018-04-13T18:08:32.488Z,30.63
2018-04-13T18:10:59.891Z,30.27
2018-04-13T18:13:27.337Z,28.80
2018-04-13T18:15:54.744Z,32.20
2018-04-13T18:18:22.164Z,30.70
2018-04-13T18:20:49.592Z,30.97
2018-04-13T18:23:17.016Z,30.00
2018-04-13T18:25:44.465Z,29.80
2018-04-13T18:28:11.880Z,30.17
2018-04-13T18:30:39.328Z,31.57
2018-04-13T18:33:06.745Z,32.10
2018-04-13T18:35:34.177Z,32.10
2018-04-13T18:38:01.584Z,31.27
2018-04-13T18:40:29.017Z,31.23
2018-04-13T18:42:56.419Z,31.10
2018-04-13T18:45:23.858Z,32.20
2018-04-13T18:47:51.305Z,31.50
2018-04-13T18:50:18.731Z,31.77
2018-04-13T18:52:46.154Z,31.87
2018-04-13T18:55:13.571Z,34.23
2018-04-13T18:57:41.010Z,32.30
2018-04-13T19:00:08.412Z,34.50
2018-04-13T19:02:35.837Z,34.47
2018-04-13T19:05:03.248Z,33.60
2018-04-13T19:07:30.671Z,34.07
2018-04-13T19:09:58.095Z,33.57
2018-04-13T19:12:25.523Z,36.40
2018-04-13T19:14:52.935Z,34.13
2018-04-13T19:17:20.489Z,38.03
2018-04-13T19:19:47.927Z,33.97
2018-04-13T19:22:15.401Z,35.13
2018-04-13T19:24:42.816Z,35.97
2018-04-13T19:27:10.236Z,36.87
2018-04-13T19:29:37.654Z,34.90
2018-04-13T19:32:05.076Z,35.67
2018-04-13T19:34:32.484Z,36.53
2018-04-13T19:36:59.900Z,37.70
2018-04-13T19:39:27.312Z,36.63
2018-04-13T19:41:54.727Z,37.27
2018-04-13T19:44:22.149Z,35.57
2018-04-13T19:46:49.572Z,36.30
2018-04-13T19:49:16.971Z,37.97
2018-04-13T19:51:44.391Z,40.10
2018-04-13T19:54:11.800Z,36.87
2018-04-13T19:56:39.223Z,38.10
2018-04-13T19:59:06.644Z,38.73
2018-04-13T20:01:34.065Z,39.97
2018-04-13T20:04:01.558Z,39.53
2018-04-13T20:06:29.014Z,40.43
2018-04-13T20:08:56.421Z,39.30
2018-04-13T20:11:23.845Z,41.30
2018-04-13T20:13:51.267Z,41.40
2018-04-13T20:16:21.483Z,43.00
2018-04-13T20:18:48.900Z,43.23
2018-04-13T20:21:16.326Z,42.67
2018-04-13T20:23:43.757Z,40.90
2018-04-13T20:26:11.344Z,41.53
2018-04-13T20:28:38.750Z,41.43
2018-04-13T20:31:06.179Z,40.53
2018-04-13T20:33:33.611Z,42.30
2018-04-13T20:36:01.101Z,44.90
2018-04-13T20:38:28.599Z,43.07
2018-04-13T20:40:55.957Z,48.03
2018-04-13T20:43:23.385Z,45.97
2018-04-13T20:45:50.797Z,49.53
2018-04-13T20:48:18.260Z,52.40
2018-04-13T20:50:45.668Z,53.03
2018-04-13T20:53:13.116Z,50.73
2018-04-13T20:55:40.529Z,54.60
2018-04-13T20:58:08.016Z,53.27
2018-04-13T21:00:35.424Z,56.83
2018-04-13T21:03:02.864Z,57.03
2018-04-13T21:05:30.269Z,56.17
2018-04-13T21:07:57.700Z,61.33
2018-04-13T21:10:25.117Z,63.97
2018-04-13T21:12:52.541Z,63.70
2018-04-13T21:15:19.956Z,63.23
2018-04-13T21:17:47.396Z,58.93
2018-04-13T21:20:14.813Z,63.60
2018-04-13T21:22:42.255Z,64.57
2018-04-13T21:25:09.662Z,65.93
2018-04-13T21:27:37.108Z,66.17
2018-04-13T21:30:04.526Z,67.93
2018-04-13T21:32:32.016Z,65.37
2018-04-13T21:34:59.475Z,65.13
2018-04-13T21:37:26.920Z,67.57
2018-04-13T21:39:54.349Z,65.73
2018-04-13T21:42:21.801Z,70.23
2018-04-13T21:44:49.276Z,73.90
2018-04-13T21:47:16.761Z,68.53
2018-04-13T21:49:44.193Z,75.10
2018-04-13T21:52:12.044Z,70.90
2018-04-13T21:54:39.473Z,74.67
2018-04-13T21:57:06.924Z,71.50
2018-04-13T21:59:34.352Z,70.63
2018-04-13T22:02:01.769Z,90.20
2018-04-13T22:04:29.204Z,75.50
2018-04-13T22:06:56.636Z,76.43
2018-04-13T22:09:24.076Z,79.47
2018-04-13T22:11:51.496Z,77.83
2018-04-13T22:14:31.119Z,79.87
2018-04-13T22:16:58.537Z,75.33
2018-04-13T22:19:25.968Z,79.80
2018-04-13T22:21:53.388Z,75.43
2018-04-13T22:24:20.801Z,78.43
2018-04-13T22:26:48.216Z,76.03
2018-04-13T22:29:15.649Z,80.97
2018-04-13T22:31:43.070Z,75.30
2018-04-13T22:34:10.489Z,78.23
2018-04-13T22:36:37.908Z,74.23
2018-04-13T22:39:06.152Z,75.37
2018-04-13T22:41:33.634Z,74.90
2018-04-13T22:44:01.271Z,72.00
2018-04-13T22:46:28.730Z,74.20
2018-04-13T22:48:56.308Z,74.33
2018-04-13T22:51:23.736Z,71.97
2018-04-13T22:53:51.145Z,75.47
2018-04-13T22:56:18.579Z,73.60
2018-04-13T22:58:45.988Z,70.33
2018-04-13T23:01:13.414Z,69.23
2018-04-13T23:03:40.832Z,70.57
2018-04-13T23:06:08.260Z,72.43
2018-04-13T23:08:35.671Z,75.00
2018-04-13T23:11:03.114Z,72.83
2018-04-13T23:13:30.561Z,66.37
2018-04-13T23:15:58.018Z,67.10
2018-04-13T23:18:25.457Z,72.03
2018-04-13T23:20:52.884Z,69.07
2018-04-13T23:23:20.321Z,73.53
2018-04-13T23:25:47.752Z,69.57
2018-04-13T23:28:15.176Z,67.97
2018-04-13T23:30:42.608Z,68.33
2018-04-13T23:33:10.028Z,69.80
2018-04-13T23:35:37.476Z,71.53
2018-04-13T23:38:04.887Z,68.10
2018-04-13T23:40:32.306Z,68.50
2018-04-13T23:42:59.736Z,72.87
2018-04-13T23:45:27.188Z,70.63
2018-04-13T23:47:54.619Z,67.63
2018-04-13T23:50:22.036Z,66.10
2018-04-13T23:52:49.460Z,66.07
2018-04-13T23:55:16.880Z,66.33
2018-04-13T23:57:44.312Z,67.37
